sensor_id;sensor_type;location;lat;lon;timestamp;P1;durP1;ratioP1;P2;durP2;ratioP2
5587;SDS011;2816;49.778;9.986;2023-09-18T00:00:33;6.90;;;5.00;;
5587;SDS011;2816;49.778;9.986;2023-09-18T00:03:01;10.93;;;5.00;;
5587;SDS011;2816;49.778;9.986;2023-09-18T00:05:28;5.77;;;4.90;;
5587;SDS011;2816;49.778;9.986;2023-09-18T00:07:55;4.50;;;4.13;;
5587;SDS011;2816;49.778;9.986;2023-09-18T00:10:22;5.70;;;4.90;;
5587;SDS011;2816;49.778;9.986;2023-09-18T00:12:52;5.83;;;4.67;;
5587;SDS011;2816;49.778;9.986;2023-09-18T00:15:19;5.07;;;4.57;;
5587;SDS011;2816;49.778;9.986;2023-09-18T00:17:47;6.40;;;4.30;;
5587;SDS011;2816;49.778;9.986;2023-09-18T00:20:15;6.40;;;4.60;;
5587;SDS011;2816;49.778;9.986;2023-09-18T00:22:42;5.13;;;4.63;;
5587;SDS011;2816;49.778;9.986;2023-09-18T00:25:09;5.17;;;4.67;;
5587;SDS011;2816;49.778;9.986;2023-09-18T00:27:36;5.17;;;4.67;;
5587;SDS011;2816;49.778;9.986;2023-09-18T00:30:03;4.90;;;4.40;;
5587;SDS011;2816;49.778;9.986;2023-09-18T00:32:32;6.00;;;5.30;;
5587;SDS011;2816;49.778;9.986;2023-09-18T00:35:00;6.07;;;4.67;;
5587;SDS011;2816;49.778;9.986;2023-09-18T00:37:28;4.60;;;4.20;;
5587;SDS011;2816;49.778;9.986;2023-09-18T00:39:55;5.47;;;4.97;;
5587;SDS011;2816;49.778;9.986;2023-09-18T00:42:22;4.30;;;4.00;;
5587;SDS011;2816;49.778;9.986;2023-09-18T00:44:48;5.67;;;4.43;;
5587;SDS011;2816;49.778;9.986;2023-09-18T00:47:15;5.73;;;5.23;;
5587;SDS011;2816;49.778;9.986;2023-09-18T00:49:44;4.90;;;4.50;;
5587;SDS011;2816;49.778;9.986;2023-09-18T00:52:16;4.83;;;4.40;;
5587;SDS011;2816;49.778;9.986;2023-09-18T00:54:46;5.70;;;5.07;;
5587;SDS011;2816;49.778;9.986;2023-09-18T00:57:14;7.17;;;5.13;;
5587;SDS011;2816;49.778;9.986;2023-09-18T00:59:41;5.80;;;5.30;;
5587;SDS011;2816;49.778;9.986;2023-09-18T01:02:08;5.30;;;4.80;;
5587;SDS011;2816;49.778;9.986;2023-09-18T01:04:35;4.87;;;4.47;;
5587;SDS011;2816;49.778;9.986;2023-09-18T01:07:09;4.40;;;4.00;;
5587;SDS011;2816;49.778;9.986;2023-09-18T01:09:37;5.40;;;4.90;;
5587;SDS011;2816;49.778;9.986;2023-09-18T01:12:06;5.97;;;5.00;;
5587;SDS011;2816;49.778;9.986;2023-09-18T01:14:39;5.53;;;5.00;;
5587;SDS011;2816;49.778;9.986;2023-09-18T01:17:09;5.47;;;4.80;;
5587;SDS011;2816;49.778;9.986;2023-09-18T01:19:39;5.60;;;5.10;;
5587;SDS011;2816;49.778;9.986;2023-09-18T01:22:09;6.60;;;5.17;;
5587;SDS011;2816;49.778;9.986;2023-09-18T01:24:38;5.50;;;4.93;;
5587;SDS011;2816;49.778;9.986;2023-09-18T01:27:07;5.70;;;5.20;;
5587;SDS011;2816;49.778;9.986;2023-09-18T01:29:35;5.40;;;4.90;;
5587;SDS011;2816;49.778;9.986;2023-09-18T01:32:03;5.00;;;4.60;;
5587;SDS011;2816;49.778;9.986;2023-09-18T01:34:31;5.73;;;4.90;;
5587;SDS011;2816;49.778;9.986;2023-09-18T01:37:01;5.53;;;5.03;;
5587;SDS011;2816;49.778;9.986;2023-09-18T01:39:30;5.50;;;4.67;;
5587;SDS011;2816;49.778;9.986;2023-09-18T01:42:00;5.10;;;4.60;;
5587;SDS011;2816;49.778;9.986;2023-09-18T01:44:29;6.30;;;4.47;;
5587;SDS011;2816;49.778;9.986;2023-09-18T01:46:57;5.27;;;4.77;;
5587;SDS011;2816;49.778;9.986;2023-09-18T01:49:28;12.13;;;5.40;;
5587;SDS011;2816;49.778;9.986;2023-09-18T01:51:55;5.60;;;5.10;;
5587;SDS011;2816;49.778;9.986;2023-09-18T01:54:22;5.53;;;4.90;;
5587;SDS011;2816;49.778;9.986;2023-09-18T01:56:49;5.40;;;4.90;;
5587;SDS011;2816;49.778;9.986;2023-09-18T01:59:18;5.50;;;5.00;;
5587;SDS011;2816;49.778;9.986;2023-09-18T02:01:45;4.90;;;4.47;;
5587;SDS011;2816;49.778;9.986;2023-09-18T02:04:12;6.00;;;5.40;;
5587;SDS011;2816;49.778;9.986;2023-09-18T02:06:39;5.87;;;4.63;;
5587;SDS011;2816;49.778;9.986;2023-09-18T02:09:06;6.10;;;5.03;;
5587;SDS011;2816;49.778;9.986;2023-09-18T02:11:34;5.60;;;5.10;;
5587;SDS011;2816;49.778;9.986;2023-09-18T02:14:02;5.30;;;4.80;;
5587;SDS011;2816;49.778;9.986;2023-09-18T02:16:32;7.40;;;5.70;;
5587;SDS011;2816;49.778;9.986;2023-09-18T02:18:59;4.90;;;4.40;;
5587;SDS011;2816;49.778;9.986;2023-09-18T02:21:26;5.33;;;4.83;;
5587;SDS011;2816;49.778;9.986;2023-09-18T02:23:53;6.27;;;5.50;;
5587;SDS011;2816;49.778;9.986;2023-09-18T02:26:20;6.03;;;5.40;;
5587;SDS011;2816;49.778;9.986;2023-09-18T02:28:48;6.37;;;4.93;;
5587;SDS011;2816;49.778;9.986;2023-09-18T02:31:18;8.33;;;5.60;;
5587;SDS011;2816;49.778;9.986;2023-09-18T02:33:47;7.97;;;4.83;;
5587;SDS011;2816;49.778;9.986;2023-09-18T02:36:13;5.70;;;5.20;;
5587;SDS011;2816;49.778;9.986;2023-09-18T02:38:40;6.10;;;5.60;;
5587;SDS011;2816;49.778;9.986;2023-09-18T02:41:08;5.57;;;5.07;;
5587;SDS011;2816;49.778;9.986;2023-09-18T02:43:34;6.50;;;5.30;;
5587;SDS011;2816;49.778;9.986;2023-09-18T02:46:02;6.27;;;5.67;;
5587;SDS011;2816;49.778;9.986;2023-09-18T02:48:29;5.60;;;5.10;;
5587;SDS011;2816;49.778;9.986;2023-09-18T02:50:58;5.60;;;5.10;;
5587;SDS011;2816;49.778;9.986;2023-09-18T02:53:25;5.67;;;4.80;;
5587;SDS011;2816;49.778;9.986;2023-09-18T02:55:52;6.07;;;5.47;;
5587;SDS011;2816;49.778;9.986;2023-09-18T02:58:20;5.60;;;5.10;;
5587;SDS011;2816;49.778;9.986;2023-09-18T03:00:48;7.87;;;5.77;;
5587;SDS011;2816;49.778;9.986;2023-09-18T03:03:16;6.20;;;5.60;;
5587;SDS011;2816;49.778;9.986;2023-09-18T03:05:44;5.80;;;5.30;;
5587;SDS011;2816;49.778;9.986;2023-09-18T03:08:13;6.07;;;5.47;;
5587;SDS011;2816;49.778;9.986;2023-09-18T03:10:41;7.07;;;5.17;;
5587;SDS011;2816;49.778;9.986;2023-09-18T03:13:09;6.03;;;5.23;;
5587;SDS011;2816;49.778;9.986;2023-09-18T03:15:37;6.10;;;5.50;;
5587;SDS011;2816;49.778;9.986;2023-09-18T03:18:05;6.00;;;5.50;;
5587;SDS011;2816;49.778;9.986;2023-09-18T03:20:33;7.63;;;5.67;;
5587;SDS011;2816;49.778;9.986;2023-09-18T03:23:00;10.83;;;5.80;;
5587;SDS011;2816;49.778;9.986;2023-09-18T03:25:30;6.07;;;5.47;;
5587;SDS011;2816;49.778;9.986;2023-09-18T03:27:57;7.90;;;5.50;;
5587;SDS011;2816;49.778;9.986;2023-09-18T03:30:24;6.93;;;5.20;;
5587;SDS011;2816;49.778;9.986;2023-09-18T03:32:51;5.30;;;4.80;;
5587;SDS011;2816;49.778;9.986;2023-09-18T03:35:19;10.60;;;6.40;;
5587;SDS011;2816;49.778;9.986;2023-09-18T03:37:46;8.77;;;5.30;;
5587;SDS011;2816;49.778;9.986;2023-09-18T03:40:14;8.30;;;5.33;;
5587;SDS011;2816;49.778;9.986;2023-09-18T03:42:43;5.50;;;5.00;;
5587;SDS011;2816;49.778;9.986;2023-09-18T03:45:10;6.67;;;5.47;;
5587;SDS011;2816;49.778;9.986;2023-09-18T03:47:38;6.50;;;5.80;;
5587;SDS011;2816;49.778;9.986;2023-09-18T03:50:06;6.27;;;5.67;;
5587;SDS011;2816;49.778;9.986;2023-09-18T03:52:34;7.00;;;5.40;;
5587;SDS011;2816;49.778;9.986;2023-09-18T03:55:01;6.37;;;5.70;;
5587;SDS011;2816;49.778;9.986;2023-09-18T03:57:28;5.47;;;4.97;;
5587;SDS011;2816;49.778;9.986;2023-09-18T03:59:56;13.13;;;6.10;;
5587;SDS011;2816;49.778;9.986;2023-09-18T04:02:24;10.43;;;6.40;;
5587;SDS011;2816;49.778;9.986;2023-09-18T04:04:51;9.77;;;5.20;;
5587;SDS011;2816;49.778;9.986;2023-09-18T04:07:19;6.07;;;5.47;;
5587;SDS011;2816;49.778;9.986;2023-09-18T04:09:46;7.47;;;5.90;;
5587;SDS011;2816;49.778;9.986;2023-09-18T04:12:13;6.27;;;5.67;;
5587;SDS011;2816;49.778;9.986;2023-09-18T04:14:40;7.33;;;6.30;;
5587;SDS011;2816;49.778;9.986;2023-09-18T04:17:09;9.13;;;6.57;;
5587;SDS011;2816;49.778;9.986;2023-09-18T04:19:36;8.17;;;6.70;;
5587;SDS011;2816;49.778;9.986;2023-09-18T04:22:03;6.43;;;5.73;;
5587;SDS011;2816;49.778;9.986;2023-09-18T04:24:30;9.40;;;5.90;;
5587;SDS011;2816;49.778;9.986;2023-09-18T04:26:56;6.50;;;5.80;;
5587;SDS011;2816;49.778;9.986;2023-09-18T04:29:23;7.27;;;6.30;;
5587;SDS011;2816;49.778;9.986;2023-09-18T04:31:50;7.77;;;6.47;;
5587;SDS011;2816;49.778;9.986;2023-09-18T04:34:20;9.50;;;6.37;;
5587;SDS011;2816;49.778;9.986;2023-09-18T04:36:47;6.93;;;5.60;;
5587;SDS011;2816;49.778;9.986;2023-09-18T04:39:14;8.83;;;6.90;;
5587;SDS011;2816;49.778;9.986;2023-09-18T04:41:41;8.17;;;6.27;;
5587;SDS011;2816;49.778;9.986;2023-09-18T04:44:08;8.50;;;6.83;;
5587;SDS011;2816;49.778;9.986;2023-09-18T04:46:37;9.17;;;5.60;;
5587;SDS011;2816;49.778;9.986;2023-09-18T04:49:05;7.10;;;5.40;;
5587;SDS011;2816;49.778;9.986;2023-09-18T04:51:33;9.33;;;6.43;;
5587;SDS011;2816;49.778;9.986;2023-09-18T04:54:01;6.93;;;6.23;;
5587;SDS011;2816;49.778;9.986;2023-09-18T04:56:29;7.23;;;5.83;;
5587;SDS011;2816;49.778;9.986;2023-09-18T04:58:56;7.27;;;6.57;;
5587;SDS011;2816;49.778;9.986;2023-09-18T05:01:23;8.00;;;7.10;;
5587;SDS011;2816;49.778;9.986;2023-09-18T05:03:50;7.97;;;6.43;;
5587;SDS011;2816;49.778;9.986;2023-09-18T05:06:18;9.93;;;7.17;;
5587;SDS011;2816;49.778;9.986;2023-09-18T05:08:47;7.00;;;6.30;;
5587;SDS011;2816;49.778;9.986;2023-09-18T05:11:14;8.00;;;6.43;;
5587;SDS011;2816;49.778;9.986;2023-09-18T05:13:41;7.93;;;6.40;;
5587;SDS011;2816;49.778;9.986;2023-09-18T05:16:08;5.80;;;5.30;;
5587;SDS011;2816;49.778;9.986;2023-09-18T05:18:35;6.27;;;5.40;;
5587;SDS011;2816;49.778;9.986;2023-09-18T05:21:03;6.83;;;6.20;;
5587;SDS011;2816;49.778;9.986;2023-09-18T05:23:30;4.77;;;4.23;;
5587;SDS011;2816;49.778;9.986;2023-09-18T05:25:59;8.33;;;5.67;;
5587;SDS011;2816;49.778;9.986;2023-09-18T05:28:25;8.87;;;6.20;;
5587;SDS011;2816;49.778;9.986;2023-09-18T05:30:52;6.47;;;5.87;;
5587;SDS011;2816;49.778;9.986;2023-09-18T05:33:20;6.93;;;6.20;;
5587;SDS011;2816;49.778;9.986;2023-09-18T05:35:47;8.17;;;4.70;;
5587;SDS011;2816;49.778;9.986;2023-09-18T05:38:14;5.63;;;4.93;;
5587;SDS011;2816;49.778;9.986;2023-09-18T05:40:43;6.03;;;5.23;;
5587;SDS011;2816;49.778;9.986;2023-09-18T05:43:11;9.87;;;5.83;;
5587;SDS011;2816;49.778;9.986;2023-09-18T05:45:38;7.67;;;5.73;;
5587;SDS011;2816;49.778;9.986;2023-09-18T05:48:05;10.73;;;6.30;;
5587;SDS011;2816;49.778;9.986;2023-09-18T05:50:33;8.63;;;6.40;;
5587;SDS011;2816;49.778;9.986;2023-09-18T05:53:01;7.50;;;6.70;;
5587;SDS011;2816;49.778;9.986;2023-09-18T05:55:29;8.03;;;6.83;;
5587;SDS011;2816;49.778;9.986;2023-09-18T05:57:56;9.90;;;7.10;;
5587;SDS011;2816;49.778;9.986;2023-09-18T06:00:24;9.17;;;6.80;;
5587;SDS011;2816;49.778;9.986;2023-09-18T06:02:52;7.53;;;6.53;;
5587;SDS011;2816;49.778;9.986;2023-09-18T06:05:19;10.67;;;7.33;;
5587;SDS011;2816;49.778;9.986;2023-09-18T06:07:47;7.77;;;6.97;;
5587;SDS011;2816;49.778;9.986;2023-09-18T06:10:14;16.67;;;7.93;;
5587;SDS011;2816;49.778;9.986;2023-09-18T06:12:42;7.57;;;5.93;;
5587;SDS011;2816;49.778;9.986;2023-09-18T06:15:10;9.70;;;6.83;;
5587;SDS011;2816;49.778;9.986;2023-09-18T06:17:39;9.63;;;7.13;;
5587;SDS011;2816;49.778;9.986;2023-09-18T06:20:07;10.87;;;6.93;;
5587;SDS011;2816;49.778;9.986;2023-09-18T06:22:36;7.30;;;6.40;;
5587;SDS011;2816;49.778;9.986;2023-09-18T06:25:04;7.20;;;6.30;;
5587;SDS011;2816;49.778;9.986;2023-09-18T06:27:33;9.93;;;6.57;;
5587;SDS011;2816;49.778;9.986;2023-09-18T06:30:01;12.10;;;6.57;;
5587;SDS011;2816;49.778;9.986;2023-09-18T06:32:28;8.10;;;6.30;;
5587;SDS011;2816;49.778;9.986;2023-09-18T06:34:57;9.40;;;6.90;;
5587;SDS011;2816;49.778;9.986;2023-09-18T06:37:24;6.40;;;5.80;;
5587;SDS011;2816;49.778;9.986;2023-09-18T06:39:51;6.63;;;5.97;;
5587;SDS011;2816;49.778;9.986;2023-09-18T06:42:18;12.40;;;6.73;;
5587;SDS011;2816;49.778;9.986;2023-09-18T06:44:45;7.90;;;6.30;;
5587;SDS011;2816;49.778;9.986;2023-09-18T06:47:12;14.60;;;6.70;;
5587;SDS011;2816;49.778;9.986;2023-09-18T06:49:39;7.30;;;6.10;;
5587;SDS011;2816;49.778;9.986;2023-09-18T06:52:09;8.50;;;5.70;;
5587;SDS011;2816;49.778;9.986;2023-09-18T06:54:35;14.07;;;6.80;;
5587;SDS011;2816;49.778;9.986;2023-09-18T06:57:03;8.30;;;5.80;;
5587;SDS011;2816;49.778;9.986;2023-09-18T06:59:30;7.40;;;6.00;;
5587;SDS011;2816;49.778;9.986;2023-09-18T07:01:58;6.63;;;4.50;;
5587;SDS011;2816;49.778;9.986;2023-09-18T07:04:26;10.40;;;4.87;;
5587;SDS011;2816;49.778;9.986;2023-09-18T07:06:53;10.97;;;6.10;;
5587;SDS011;2816;49.778;9.986;2023-09-18T07:09:22;6.37;;;5.03;;
5587;SDS011;2816;49.778;9.986;2023-09-18T07:11:51;6.07;;;4.63;;
5587;SDS011;2816;49.778;9.986;2023-09-18T07:14:17;7.80;;;7.00;;
5587;SDS011;2816;49.778;9.986;2023-09-18T07:16:44;11.10;;;5.80;;
5587;SDS011;2816;49.778;9.986;2023-09-18T07:19:11;8.80;;;5.70;;
5587;SDS011;2816;49.778;9.986;2023-09-18T07:21:41;9.47;;;5.80;;
5587;SDS011;2816;49.778;9.986;2023-09-18T07:24:09;6.23;;;5.50;;
5587;SDS011;2816;49.778;9.986;2023-09-18T07:26:43;8.77;;;6.77;;
5587;SDS011;2816;49.778;9.986;2023-09-18T07:29:11;8.10;;;6.17;;
5587;SDS011;2816;49.778;9.986;2023-09-18T07:31:40;8.10;;;5.30;;
5587;SDS011;2816;49.778;9.986;2023-09-18T07:34:07;8.20;;;6.30;;
5587;SDS011;2816;49.778;9.986;2023-09-18T07:36:34;10.70;;;6.00;;
5587;SDS011;2816;49.778;9.986;2023-09-18T07:39:01;7.50;;;6.20;;
5587;SDS011;2816;49.778;9.986;2023-09-18T07:41:29;7.03;;;5.70;;
5587;SDS011;2816;49.778;9.986;2023-09-18T07:43:57;6.87;;;5.43;;
5587;SDS011;2816;49.778;9.986;2023-09-18T07:46:24;8.93;;;6.00;;
5587;SDS011;2816;49.778;9.986;2023-09-18T07:48:51;9.77;;;5.67;;
5587;SDS011;2816;49.778;9.986;2023-09-18T07:51:18;7.13;;;5.60;;
5587;SDS011;2816;49.778;9.986;2023-09-18T07:53:45;6.77;;;6.07;;
5587;SDS011;2816;49.778;9.986;2023-09-18T07:56:12;7.07;;;6.20;;
5587;SDS011;2816;49.778;9.986;2023-09-18T07:58:39;8.43;;;6.00;;
5587;SDS011;2816;49.778;9.986;2023-09-18T08:01:07;7.97;;;5.23;;
5587;SDS011;2816;49.778;9.986;2023-09-18T08:03:35;11.23;;;6.23;;
5587;SDS011;2816;49.778;9.986;2023-09-18T08:06:02;8.57;;;5.80;;
5587;SDS011;2816;49.778;9.986;2023-09-18T08:08:30;8.10;;;5.17;;
5587;SDS011;2816;49.778;9.986;2023-09-18T08:10:58;10.20;;;5.63;;
5587;SDS011;2816;49.778;9.986;2023-09-18T08:13:27;5.83;;;4.83;;
5587;SDS011;2816;49.778;9.986;2023-09-18T08:15:54;7.10;;;5.80;;
5587;SDS011;2816;49.778;9.986;2023-09-18T08:18:22;10.40;;;5.73;;
5587;SDS011;2816;49.778;9.986;2023-09-18T08:20:51;8.13;;;6.13;;
5587;SDS011;2816;49.778;9.986;2023-09-18T08:23:19;10.77;;;6.80;;
5587;SDS011;2816;49.778;9.986;2023-09-18T08:25:46;7.67;;;6.10;;
5587;SDS011;2816;49.778;9.986;2023-09-18T08:28:15;6.53;;;4.90;;
5587;SDS011;2816;49.778;9.986;2023-09-18T08:30:42;5.17;;;4.53;;
5587;SDS011;2816;49.778;9.986;2023-09-18T08:33:12;9.60;;;6.17;;
5587;SDS011;2816;49.778;9.986;2023-09-18T08:35:40;6.63;;;4.93;;
5587;SDS011;2816;49.778;9.986;2023-09-18T08:38:07;8.07;;;5.40;;
5587;SDS011;2816;49.778;9.986;2023-09-18T08:40:34;12.70;;;5.70;;
5587;SDS011;2816;49.778;9.986;2023-09-18T08:43:01;10.60;;;5.37;;
5587;SDS011;2816;49.778;9.986;2023-09-18T08:45:31;14.63;;;5.53;;
5587;SDS011;2816;49.778;9.986;2023-09-18T08:48:04;8.47;;;4.03;;
5587;SDS011;2816;49.778;9.986;2023-09-18T08:50:32;7.77;;;4.87;;
5587;SDS011;2816;49.778;9.986;2023-09-18T08:53:00;10.30;;;4.47;;
5587;SDS011;2816;49.778;9.986;2023-09-18T08:55:28;13.07;;;4.30;;
5587;SDS011;2816;49.778;9.986;2023-09-18T08:57:55;8.40;;;4.30;;
5587;SDS011;2816;49.778;9.986;2023-09-18T09:00:25;7.40;;;4.07;;
5587;SDS011;2816;49.778;9.986;2023-09-18T09:02:52;10.00;;;3.80;;
5587;SDS011;2816;49.778;9.986;2023-09-18T09:05:19;7.03;;;3.50;;
5587;SDS011;2816;49.778;9.986;2023-09-18T09:07:47;6.93;;;3.20;;
5587;SDS011;2816;49.778;9.986;2023-09-18T09:10:16;4.13;;;3.30;;
5587;SDS011;2816;49.778;9.986;2023-09-18T09:12:47;7.27;;;3.60;;
5587;SDS011;2816;49.778;9.986;2023-09-18T09:15:15;15.17;;;4.10;;
5587;SDS011;2816;49.778;9.986;2023-09-18T09:17:43;6.67;;;3.40;;
5587;SDS011;2816;49.778;9.986;2023-09-18T09:20:10;10.50;;;3.60;;
5587;SDS011;2816;49.778;9.986;2023-09-18T09:22:38;11.97;;;3.60;;
5587;SDS011;2816;49.778;9.986;2023-09-18T09:27:51;8.87;;;3.17;;
5587;SDS011;2816;49.778;9.986;2023-09-18T09:30:19;11.80;;;2.90;;
5587;SDS011;2816;49.778;9.986;2023-09-18T09:32:47;9.77;;;3.60;;
5587;SDS011;2816;49.778;9.986;2023-09-18T09:35:22;13.70;;;3.60;;
5587;SDS011;2816;49.778;9.986;2023-09-18T09:37:53;10.60;;;3.20;;
5587;SDS011;2816;49.778;9.986;2023-09-18T09:40:24;6.47;;;3.13;;
5587;SDS011;2816;49.778;9.986;2023-09-18T09:42:51;8.00;;;2.60;;
5587;SDS011;2816;49.778;9.986;2023-09-18T09:45:25;10.40;;;3.47;;
5587;SDS011;2816;49.778;9.986;2023-09-18T09:47:53;11.27;;;3.10;;
5587;SDS011;2816;49.778;9.986;2023-09-18T09:50:20;8.07;;;2.83;;
5587;SDS011;2816;49.778;9.986;2023-09-18T09:52:48;12.33;;;3.30;;
5587;SDS011;2816;49.778;9.986;2023-09-18T09:55:19;11.60;;;2.97;;
5587;SDS011;2816;49.778;9.986;2023-09-18T09:57:50;9.20;;;2.53;;
5587;SDS011;2816;49.778;9.986;2023-09-18T10:00:19;8.63;;;3.20;;
5587;SDS011;2816;49.778;9.986;2023-09-18T10:02:56;8.70;;;3.13;;
5587;SDS011;2816;49.778;9.986;2023-09-18T10:05:24;4.77;;;2.53;;
5587;SDS011;2816;49.778;9.986;2023-09-18T10:07:56;8.37;;;3.20;;
5587;SDS011;2816;49.778;9.986;2023-09-18T10:10:25;7.67;;;2.50;;
5587;SDS011;2816;49.778;9.986;2023-09-18T10:12:58;7.33;;;2.30;;
5587;SDS011;2816;49.778;9.986;2023-09-18T10:15:29;9.93;;;3.40;;
5587;SDS011;2816;49.778;9.986;2023-09-18T10:18:03;9.50;;;2.60;;
5587;SDS011;2816;49.778;9.986;2023-09-18T10:20:37;9.23;;;2.63;;
5587;SDS011;2816;49.778;9.986;2023-09-18T10:23:09;5.27;;;2.50;;
5587;SDS011;2816;49.778;9.986;2023-09-18T10:25:48;9.83;;;2.10;;
5587;SDS011;2816;49.778;9.986;2023-09-18T10:28:18;3.07;;;1.67;;
5587;SDS011;2816;49.778;9.986;2023-09-18T10:30:46;2.50;;;1.80;;
5587;SDS011;2816;49.778;9.986;2023-09-18T10:33:15;4.93;;;2.00;;
5587;SDS011;2816;49.778;9.986;2023-09-18T10:35:42;5.20;;;1.83;;
5587;SDS011;2816;49.778;9.986;2023-09-18T10:38:12;4.90;;;2.13;;
5587;SDS011;2816;49.778;9.986;2023-09-18T10:40:41;7.07;;;2.50;;
5587;SDS011;2816;49.778;9.986;2023-09-18T10:43:09;6.23;;;2.00;;
5587;SDS011;2816;49.778;9.986;2023-09-18T10:45:43;9.77;;;2.53;;
5587;SDS011;2816;49.778;9.986;2023-09-18T10:48:10;4.40;;;2.00;;
5587;SDS011;2816;49.778;9.986;2023-09-18T10:50:38;5.77;;;2.00;;
5587;SDS011;2816;49.778;9.986;2023-09-18T10:53:06;6.80;;;2.50;;
5587;SDS011;2816;49.778;9.986;2023-09-18T10:55:33;4.20;;;2.20;;
5587;SDS011;2816;49.778;9.986;2023-09-18T10:58:01;2.80;;;1.77;;
5587;SDS011;2816;49.778;9.986;2023-09-18T11:00:29;7.90;;;2.30;;
5587;SDS011;2816;49.778;9.986;2023-09-18T11:03:15;6.27;;;1.93;;
5587;SDS011;2816;49.778;9.986;2023-09-18T11:05:43;9.00;;;2.23;;
5587;SDS011;2816;49.778;9.986;2023-09-18T11:08:24;4.43;;;2.37;;
5587;SDS011;2816;49.778;9.986;2023-09-18T11:10:58;11.30;;;2.30;;
5587;SDS011;2816;49.778;9.986;2023-09-18T11:13:29;5.70;;;1.93;;
5587;SDS011;2816;49.778;9.986;2023-09-18T11:16:13;4.60;;;1.97;;
5587;SDS011;2816;49.778;9.986;2023-09-18T11:18:42;6.23;;;2.20;;
5587;SDS011;2816;49.778;9.986;2023-09-18T11:21:11;4.83;;;1.97;;
5587;SDS011;2816;49.778;9.986;2023-09-18T11:23:42;7.30;;;2.03;;
5587;SDS011;2816;49.778;9.986;2023-09-18T11:26:09;5.70;;;2.07;;
5587;SDS011;2816;49.778;9.986;2023-09-18T11:28:37;3.63;;;2.03;;
5587;SDS011;2816;49.778;9.986;2023-09-18T11:31:05;3.53;;;1.80;;
5587;SDS011;2816;49.778;9.986;2023-09-18T11:33:36;4.50;;;2.17;;
5587;SDS011;2816;49.778;9.986;2023-09-18T11:36:06;5.50;;;1.83;;
5587;SDS011;2816;49.778;9.986;2023-09-18T11:38:51;6.07;;;1.90;;
5587;SDS011;2816;49.778;9.986;2023-09-18T11:41:19;3.50;;;1.73;;
5587;SDS011;2816;49.778;9.986;2023-09-18T11:43:49;10.03;;;2.43;;
5587;SDS011;2816;49.778;9.986;2023-09-18T11:46:19;12.53;;;2.60;;
5587;SDS011;2816;49.778;9.986;2023-09-18T11:48:48;5.10;;;1.80;;
5587;SDS011;2816;49.778;9.986;2023-09-18T11:51:24;6.67;;;2.30;;
5587;SDS011;2816;49.778;9.986;2023-09-18T11:53:52;2.70;;;1.77;;
5587;SDS011;2816;49.778;9.986;2023-09-18T11:56:21;3.53;;;1.93;;
5587;SDS011;2816;49.778;9.986;2023-09-18T11:58:48;4.40;;;2.07;;
5587;SDS011;2816;49.778;9.986;2023-09-18T12:01:17;4.40;;;2.07;;
5587;SDS011;2816;49.778;9.986;2023-09-18T12:03:44;4.30;;;2.13;;
5587;SDS011;2816;49.778;9.986;2023-09-18T12:06:12;6.97;;;2.13;;
5587;SDS011;2816;49.778;9.986;2023-09-18T12:08:41;4.43;;;1.80;;
5587;SDS011;2816;49.778;9.986;2023-09-18T12:11:08;5.93;;;1.83;;
5587;SDS011;2816;49.778;9.986;2023-09-18T12:13:34;4.27;;;2.23;;
5587;SDS011;2816;49.778;9.986;2023-09-18T12:16:02;5.20;;;2.37;;
5587;SDS011;2816;49.778;9.986;2023-09-18T12:18:31;6.27;;;2.30;;
5587;SDS011;2816;49.778;9.986;2023-09-18T12:21:00;4.37;;;2.13;;
5587;SDS011;2816;49.778;9.986;2023-09-18T12:23:36;2.60;;;1.90;;
5587;SDS011;2816;49.778;9.986;2023-09-18T12:26:05;5.73;;;1.97;;
5587;SDS011;2816;49.778;9.986;2023-09-18T12:28:33;2.63;;;2.00;;
5587;SDS011;2816;49.778;9.986;2023-09-18T12:31:01;9.03;;;2.50;;
5587;SDS011;2816;49.778;9.986;2023-09-18T12:33:30;5.33;;;2.20;;
5587;SDS011;2816;49.778;9.986;2023-09-18T12:36:01;5.03;;;1.77;;
5587;SDS011;2816;49.778;9.986;2023-09-18T12:38:30;7.00;;;2.57;;
5587;SDS011;2816;49.778;9.986;2023-09-18T12:40:57;6.50;;;2.13;;
5587;SDS011;2816;49.778;9.986;2023-09-18T12:43:34;8.60;;;1.90;;
5587;SDS011;2816;49.778;9.986;2023-09-18T12:46:02;4.23;;;2.10;;
5587;SDS011;2816;49.778;9.986;2023-09-18T12:48:30;3.67;;;2.00;;
5587;SDS011;2816;49.778;9.986;2023-09-18T12:51:02;4.17;;;2.20;;
5587;SDS011;2816;49.778;9.986;2023-09-18T12:53:29;5.73;;;1.80;;
5587;SDS011;2816;49.778;9.986;2023-09-18T12:56:04;4.30;;;2.10;;
5587;SDS011;2816;49.778;9.986;2023-09-18T12:58:33;3.70;;;1.83;;
5587;SDS011;2816;49.778;9.986;2023-09-18T13:01:03;5.17;;;1.80;;
5587;SDS011;2816;49.778;9.986;2023-09-18T13:03:34;6.20;;;1.80;;
5587;SDS011;2816;49.778;9.986;2023-09-18T13:06:08;5.73;;;2.20;;
5587;SDS011;2816;49.778;9.986;2023-09-18T13:08:36;4.50;;;1.80;;
5587;SDS011;2816;49.778;9.986;2023-09-18T13:11:03;5.07;;;2.53;;
5587;SDS011;2816;49.778;9.986;2023-09-18T13:13:31;4.87;;;2.43;;
5587;SDS011;2816;49.778;9.986;2023-09-18T13:16:00;9.53;;;2.00;;
5587;SDS011;2816;49.778;9.986;2023-09-18T13:18:30;2.13;;;1.60;;
5587;SDS011;2816;49.778;9.986;2023-09-18T13:20:57;5.50;;;2.00;;
5587;SDS011;2816;49.778;9.986;2023-09-18T13:23:28;6.13;;;1.70;;
5587;SDS011;2816;49.778;9.986;2023-09-18T13:25:58;3.63;;;1.30;;
5587;SDS011;2816;49.778;9.986;2023-09-18T13:28:26;3.00;;;1.40;;
5587;SDS011;2816;49.778;9.986;2023-09-18T13:30:57;2.77;;;1.60;;
5587;SDS011;2816;49.778;9.986;2023-09-18T13:33:24;2.23;;;1.50;;
5587;SDS011;2816;49.778;9.986;2023-09-18T13:35:53;10.77;;;1.70;;
5587;SDS011;2816;49.778;9.986;2023-09-18T13:38:21;3.50;;;1.67;;
5587;SDS011;2816;49.778;9.986;2023-09-18T13:40:48;3.97;;;1.33;;
5587;SDS011;2816;49.778;9.986;2023-09-18T13:43:15;3.47;;;1.30;;
5587;SDS011;2816;49.778;9.986;2023-09-18T13:45:43;3.67;;;1.40;;
5587;SDS011;2816;49.778;9.986;2023-09-18T13:48:12;2.37;;;1.50;;
5587;SDS011;2816;49.778;9.986;2023-09-18T13:50:40;2.27;;;1.40;;
5587;SDS011;2816;49.778;9.986;2023-09-18T13:53:07;2.47;;;1.50;;
5587;SDS011;2816;49.778;9.986;2023-09-18T13:55:34;1.83;;;1.30;;
5587;SDS011;2816;49.778;9.986;2023-09-18T13:58:01;3.20;;;1.63;;
5587;SDS011;2816;49.778;9.986;2023-09-18T14:00:29;3.07;;;1.30;;
5587;SDS011;2816;49.778;9.986;2023-09-18T14:02:56;3.63;;;1.23;;
5587;SDS011;2816;49.778;9.986;2023-09-18T14:05:24;3.10;;;1.70;;
5587;SDS011;2816;49.778;9.986;2023-09-18T14:07:52;1.50;;;1.40;;
5587;SDS011;2816;49.778;9.986;2023-09-18T14:10:24;7.93;;;1.70;;
5587;SDS011;2816;49.778;9.986;2023-09-18T14:12:52;1.40;;;1.30;;
5587;SDS011;2816;49.778;9.986;2023-09-18T14:15:18;3.73;;;1.47;;
5587;SDS011;2816;49.778;9.986;2023-09-18T14:17:46;4.00;;;1.70;;
5587;SDS011;2816;49.778;9.986;2023-09-18T14:20:13;2.00;;;1.50;;
5587;SDS011;2816;49.778;9.986;2023-09-18T14:22:44;1.47;;;1.30;;
5587;SDS011;2816;49.778;9.986;2023-09-18T14:25:14;3.20;;;1.43;;
5587;SDS011;2816;49.778;9.986;2023-09-18T14:27:41;12.10;;;1.23;;
5587;SDS011;2816;49.778;9.986;2023-09-18T14:30:09;2.90;;;1.37;;
5587;SDS011;2816;49.778;9.986;2023-09-18T14:32:38;2.60;;;1.37;;
5587;SDS011;2816;49.778;9.986;2023-09-18T14:35:06;4.67;;;1.40;;
5587;SDS011;2816;49.778;9.986;2023-09-18T14:37:34;1.57;;;1.20;;
5587;SDS011;2816;49.778;9.986;2023-09-18T14:40:02;2.40;;;1.27;;
5587;SDS011;2816;49.778;9.986;2023-09-18T14:42:30;3.20;;;1.57;;
5587;SDS011;2816;49.778;9.986;2023-09-18T14:44:58;2.80;;;1.40;;
5587;SDS011;2816;49.778;9.986;2023-09-18T14:47:26;2.57;;;1.33;;
5587;SDS011;2816;49.778;9.986;2023-09-18T14:49:53;3.70;;;1.53;;
5587;SDS011;2816;49.778;9.986;2023-09-18T14:52:19;3.40;;;1.43;;
5587;SDS011;2816;49.778;9.986;2023-09-18T14:54:48;2.27;;;1.40;;
5587;SDS011;2816;49.778;9.986;2023-09-18T14:57:16;1.70;;;1.60;;
5587;SDS011;2816;49.778;9.986;2023-09-18T14:59:43;3.40;;;1.27;;
5587;SDS011;2816;49.778;9.986;2023-09-18T15:02:12;2.93;;;1.33;;
5587;SDS011;2816;49.778;9.986;2023-09-18T15:04:40;6.57;;;1.47;;
5587;SDS011;2816;49.778;9.986;2023-09-18T15:07:07;1.90;;;1.23;;
5587;SDS011;2816;49.778;9.986;2023-09-18T15:09:34;2.40;;;1.30;;
5587;SDS011;2816;49.778;9.986;2023-09-18T15:12:00;1.83;;;1.17;;
5587;SDS011;2816;49.778;9.986;2023-09-18T15:14:29;2.30;;;1.30;;
5587;SDS011;2816;49.778;9.986;2023-09-18T15:16:57;1.87;;;1.40;;
5587;SDS011;2816;49.778;9.986;2023-09-18T15:19:24;2.10;;;1.20;;
5587;SDS011;2816;49.778;9.986;2023-09-18T15:21:50;2.00;;;1.10;;
5587;SDS011;2816;49.778;9.986;2023-09-18T15:24:20;3.60;;;1.20;;